Time;durP1;ratioP1;P1;durP2;ratioP2;P2;SDS_P1;SDS_P2;PMS_P1;PMS_P2;Temp;Humidity;BMP_temperature;BMP_pressure;BME280_temperature;BME280_humidity;BME280_pressure;Samples;Min_cycle;Max_cycle;Signal;HPM_P1;HPM_P2
2024/04/06 00:02:17;;;;;;;15.73;5.15;;;10.60;99.90;;;;;;6301241;22;19995;-84
2024/04/06 00:04:43;;;;;;;13.02;3.88;;;10.60;99.90;;;;;;6302849;22;20004;-85
2024/04/06 00:07:08;;;;;;;11.77;3.67;;;10.60;99.90;;;;;;6303810;22;20033;-83
2024/04/06 00:09:35;;;;;;;6.32;3.00;;;10.60;99.90;;;;;;6302067;22;20061;-81
2024/04/06 00:12:01;;;;;;;5.80;2.92;;;10.50;99.90;;;;;;6301693;22;20324;-81
2024/04/06 00:14:26;;;;;;;6.60;2.92;;;10.50;99.90;;;;;;6301916;22;20014;-81
2024/04/06 00:16:52;;;;;;;6.03;2.97;;;10.80;99.90;;;;;;6300042;22;20003;-81
2024/04/06 00:19:18;;;;;;;4.38;2.55;;;11.20;99.90;;;;;;6273714;22;20051;-80
2024/04/06 00:21:45;;;;;;;12.18;2.55;;;11.40;99.90;;;;;;6301212;22;20004;-82
2024/04/06 00:24:11;;;;;;;6.50;2.13;;;11.60;99.90;;;;;;6301555;22;20044;-80
2024/04/06 00:26:36;;;;;;;3.97;2.50;;;11.60;99.90;;;;;;6301394;22;20450;-80
2024/04/06 00:29:02;;;;;;;6.90;2.67;;;11.70;99.90;;;;;;6301010;22;20054;-79
2024/04/06 00:31:27;;;;;;;6.45;2.25;;;11.70;99.90;;;;;;6302249;22;20031;-80
2024/04/06 00:33:53;;;;;;;5.55;2.35;;;11.60;99.90;;;;;;6302856;22;20071;-80
2024/04/06 00:36:19;;;;;;;6.95;2.53;;;11.60;99.90;;;;;;6304360;22;19999;-80
2024/04/06 00:38:45;;;;;;;5.72;2.17;;;11.60;99.90;;;;;;6304008;22;20022;-81
2024/04/06 00:41:11;;;;;;;3.88;2.65;;;11.60;99.90;;;;;;6303829;22;19999;-80
2024/04/06 00:43:37;;;;;;;3.22;1.98;;;11.80;99.90;;;;;;6304210;22;20031;-82
2024/04/06 00:46:03;;;;;;;2.65;1.90;;;11.80;99.90;;;;;;6303684;22;20585;-81
2024/04/06 00:48:28;;;;;;;4.78;1.90;;;11.70;99.90;;;;;;6302575;22;20005;-82
2024/04/06 00:51:00;;;;;;;4.78;1.92;;;11.90;99.90;;;;;;6303767;22;20085;-82
2024/04/06 00:53:26;;;;;;;3.45;1.88;;;12.10;99.90;;;;;;6304395;22;20470;-82
2024/04/06 00:55:52;;;;;;;2.95;1.60;;;12.40;99.90;;;;;;6303453;22;20034;-81
2024/04/06 00:58:19;;;;;;;3.67;1.80;;;12.70;99.90;;;;;;6303410;22;20007;-82
2024/04/06 01:00:45;;;;;;;4.47;1.73;;;12.80;70.00;;;;;;6303109;22;20018;-82
2024/04/06 01:03:11;;;;;;;2.63;1.75;;;12.80;56.40;;;;;;6274261;22;20004;-81
2024/04/06 01:05:36;;;;;;;6.22;1.67;;;12.80;40.70;;;;;;6303271;22;20003;-81
2024/04/06 01:08:02;;;;;;;8.05;1.40;;;12.80;25.50;;;;;;6302969;22;19999;-81
2024/04/06 01:10:28;;;;;;;11.05;1.63;;;12.90;11.10;;;;;;6302745;22;19999;-82
2024/04/06 01:12:53;;;;;;;4.32;1.20;;;12.80;4.00;;;;;;6302957;22;20346;-81
2024/04/06 01:15:19;;;;;;;4.80;1.70;;;12.90;1.00;;;;;;6303499;22;20007;-80
2024/04/06 01:17:45;;;;;;;2.88;1.55;;;12.80;1.00;;;;;;6301831;22;20462;-81
2024/04/06 01:20:12;;;;;;;1.60;1.35;;;12.70;1.00;;;;;;6303365;22;20007;-81
2024/04/06 01:22:37;;;;;;;4.68;1.52;;;12.60;2.60;;;;;;6304107;22;20003;-81
2024/04/06 01:25:04;;;;;;;4.07;1.40;;;12.60;1.00;;;;;;6302743;22;20019;-81
2024/04/06 01:27:30;;;;;;;7.68;1.40;;;12.60;4.40;;;;;;6303436;22;20415;-81
2024/04/06 01:29:56;;;;;;;4.60;1.50;;;12.60;1.00;;;;;;6303246;22;19999;-81
2024/04/06 01:32:22;;;;;;;4.55;1.50;;;12.60;1.00;;;;;;6302045;22;19995;-80
2024/04/06 01:34:47;;;;;;;10.27;1.40;;;12.60;1.00;;;;;;6302937;22;20094;-81
2024/04/06 01:37:15;;;;;;;4.63;1.38;;;12.50;1.00;;;;;;6275384;22;20010;-81
2024/04/06 01:39:41;;;;;;;5.35;1.58;;;12.40;1.00;;;;;;6302704;22;20019;-82
2024/04/06 01:42:06;;;;;;;2.53;1.30;;;12.40;1.00;;;;;;6302910;22;20343;-82
2024/04/06 01:44:32;;;;;;;4.18;1.20;;;12.50;1.00;;;;;;6303018;22;20004;-81
2024/04/06 01:46:58;;;;;;;3.85;1.52;;;12.40;1.00;;;;;;6300887;22;20506;-81
2024/04/06 01:49:24;;;;;;;2.05;1.15;;;12.40;1.00;;;;;;6302473;22;20477;-83
2024/04/06 01:51:50;;;;;;;2.95;1.50;;;12.40;1.00;;;;;;6302495;22;20006;-80
2024/04/06 01:54:15;;;;;;;6.32;1.30;;;12.20;1.00;;;;;;6302901;22;19999;-82
2024/04/06 01:56:41;;;;;;;1.95;1.08;;;12.30;1.00;;;;;;6302378;22;20089;-82
2024/04/06 01:59:07;;;;;;;4.43;1.00;;;12.30;1.00;;;;;;6275506;22;20019;-82
2024/04/06 02:01:33;;;;;;;3.42;1.25;;;12.20;1.00;;;;;;6302529;22;19995;-80
2024/04/06 02:03:59;;;;;;;4.32;1.20;;;12.20;1.00;;;;;;6302200;22;20013;-79
2024/04/06 02:06:24;;;;;;;1.67;1.58;;;12.10;1.00;;;;;;6302834;22;20377;-79
2024/04/06 02:08:50;;;;;;;2.33;1.02;;;12.10;1.00;;;;;;6303006;22;20520;-80
2024/04/06 02:11:15;;;;;;;1.70;0.65;;;12.10;1.00;;;;;;6302031;22;19996;-80
2024/04/06 02:13:41;;;;;;;2.03;1.20;;;11.90;1.00;;;;;;6302568;22;20120;-80
2024/04/06 02:16:07;;;;;;;4.25;1.15;;;11.50;1.00;;;;;;6301932;22;20030;-80
2024/04/06 02:18:32;;;;;;;3.15;1.20;;;11.00;7.10;;;;;;6302098;22;20464;-81
2024/04/06 02:20:58;;;;;;;4.05;1.40;;;10.40;46.20;;;;;;6302378;22;19999;-81
2024/04/06 02:23:24;;;;;;;1.60;1.17;;;10.20;99.90;;;;;;6302628;22;20078;-80
2024/04/06 02:25:49;;;;;;;3.17;1.15;;;10.00;99.90;;;;;;6301885;22;20007;-77
2024/04/06 02:28:15;;;;;;;1.20;0.90;;;9.80;99.90;;;;;;6301947;22;19999;-79
2024/04/06 02:30:41;;;;;;;3.83;1.15;;;9.50;99.90;;;;;;6302507;22;19999;-79
2024/04/06 02:33:06;;;;;;;3.67;1.52;;;9.20;99.90;;;;;;6302084;22;20441;-80
2024/04/06 02:35:32;;;;;;;3.42;1.40;;;9.10;99.90;;;;;;6303006;22;20000;-79
2024/04/06 02:37:58;;;;;;;2.85;1.70;;;9.00;99.90;;;;;;6302134;22;20400;-80
2024/04/06 02:40:23;;;;;;;3.50;1.50;;;9.00;99.90;;;;;;6302810;22;20015;-80
2024/04/06 02:42:49;;;;;;;2.15;1.33;;;8.90;99.90;;;;;;6301966;22;19999;-80
2024/04/06 02:45:15;;;;;;;5.55;1.75;;;8.90;99.90;;;;;;6302170;22;20019;-81
2024/04/06 02:47:40;;;;;;;5.28;1.75;;;8.80;99.90;;;;;;6300765;22;20106;-79
2024/04/06 02:50:06;;;;;;;4.03;2.20;;;9.00;99.90;;;;;;6303150;22;20120;-80
2024/04/06 02:52:32;;;;;;;3.75;1.67;;;9.10;99.90;;;;;;6303162;22;20395;-79
2024/04/06 02:54:57;;;;;;;3.75;1.95;;;8.70;99.90;;;;;;6302763;22;20011;-81
2024/04/06 02:57:23;;;;;;;3.53;1.90;;;8.60;99.90;;;;;;6302563;22;20090;-80
2024/04/06 02:59:49;;;;;;;2.80;1.88;;;8.70;99.90;;;;;;6302000;22;20061;-80
2024/04/06 03:02:15;;;;;;;4.57;2.00;;;8.70;99.90;;;;;;6301489;22;20007;-81
2024/04/06 03:04:41;;;;;;;6.50;2.28;;;8.60;99.90;;;;;;6303221;22;20003;-80
2024/04/06 03:07:07;;;;;;;4.72;1.50;;;8.50;99.90;;;;;;6303758;22;19995;-81
2024/04/06 03:09:35;;;;;;;2.72;1.75;;;8.20;99.90;;;;;;6304926;22;20015;-80
2024/04/06 03:12:07;;;;;;;7.05;2.45;;;8.10;99.90;;;;;;6303986;22;19995;-80
2024/04/06 03:14:33;;;;;;;15.82;3.78;;;8.20;99.90;;;;;;6304954;22;20350;-82
2024/04/06 03:16:59;;;;;;;6.55;3.25;;;8.30;99.90;;;;;;6303134;22;19999;-82
2024/04/06 03:19:24;;;;;;;8.43;3.60;;;8.40;99.90;;;;;;6304145;22;20015;-80
2024/04/06 03:21:51;;;;;;;5.60;3.15;;;8.50;99.90;;;;;;6303988;22;20037;-80
2024/04/06 03:24:16;;;;;;;7.60;2.83;;;8.50;99.90;;;;;;6304760;22;20000;-80
2024/04/06 03:26:45;;;;;;;5.68;2.97;;;8.60;99.90;;;;;;6304219;22;20003;-79
2024/04/06 03:29:11;;;;;;;4.95;2.90;;;8.60;99.90;;;;;;6304355;22;20007;-80
2024/04/06 03:31:37;;;;;;;5.20;2.80;;;8.70;99.90;;;;;;6303760;22;20086;-81
2024/04/06 03:34:03;;;;;;;9.93;4.18;;;8.60;99.90;;;;;;6304339;22;20092;-80
2024/04/06 03:36:28;;;;;;;9.38;2.70;;;8.50;99.90;;;;;;6304955;22;20063;-81
2024/04/06 03:38:54;;;;;;;6.38;2.80;;;8.40;99.90;;;;;;6305351;22;20443;-81
2024/04/06 03:41:20;;;;;;;7.78;2.33;;;8.10;99.90;;;;;;6305063;22;20003;-81
2024/04/06 03:43:45;;;;;;;5.88;1.88;;;8.00;99.90;;;;;;6305715;22;20410;-81
2024/04/06 03:46:11;;;;;;;3.00;1.98;;;7.90;99.90;;;;;;6304507;22;20455;-80
2024/04/06 03:48:36;;;;;;;3.13;1.95;;;7.90;99.90;;;;;;6303323;22;20459;-79
2024/04/06 03:51:02;;;;;;;8.50;2.28;;;7.80;99.90;;;;;;6304811;22;20121;-80
2024/04/06 03:53:33;;;;;;;4.70;2.00;;;7.70;99.90;;;;;;6305800;22;20450;-81
2024/04/06 03:55:59;;;;;;;4.40;2.22;;;7.60;99.90;;;;;;6304676;22;19996;-80
2024/04/06 03:58:25;;;;;;;3.25;2.00;;;7.70;99.90;;;;;;6304748;22;19999;-82
2024/04/06 04:00:51;;;;;;;2.35;2.00;;;7.50;99.90;;;;;;6304540;22;20017;-80
2024/04/06 04:03:16;;;;;;;5.72;2.72;;;7.60;99.90;;;;;;6303123;22;20030;-81
2024/04/06 04:05:43;;;;;;;7.55;2.20;;;7.70;99.90;;;;;;6277459;22;20451;-81
2024/04/06 04:08:08;;;;;;;4.95;1.60;;;7.70;99.90;;;;;;6304390;22;19999;-81
2024/04/06 04:10:36;;;;;;;4.95;2.13;;;7.70;99.90;;;;;;6304741;22;20045;-80
2024/04/06 04:13:03;;;;;;;7.90;2.75;;;7.60;99.90;;;;;;6303641;22;20022;-79
2024/04/06 04:15:29;;;;;;;13.27;5.22;;;7.60;99.90;;;;;;6306336;22;20393;-83
2024/04/06 04:17:54;;;;;;;13.93;4.40;;;7.80;99.90;;;;;;6275889;22;20003;-79
2024/04/06 04:20:20;;;;;;;5.63;2.60;;;7.70;99.90;;;;;;6306725;22;20031;-84
2024/04/06 04:22:46;;;;;;;6.22;2.45;;;7.50;99.90;;;;;;6307317;22;20003;-87
2024/04/06 04:25:12;;;;;;;9.13;2.88;;;7.40;99.90;;;;;;6308106;22;20527;-86
2024/04/06 04:27:38;;;;;;;9.35;3.40;;;7.50;99.90;;;;;;6307600;22;19999;-85
2024/04/06 04:30:04;;;;;;;7.93;3.33;;;7.60;99.90;;;;;;6306388;22;20003;-85
2024/04/06 04:32:29;;;;;;;4.72;2.20;;;7.70;99.90;;;;;;6303610;22;20082;-82
2024/04/06 04:34:55;;;;;;;4.05;1.95;;;7.40;99.90;;;;;;6305168;22;20026;-82
2024/04/06 04:37:20;;;;;;;3.17;1.98;;;7.20;99.90;;;;;;6306300;22;20003;-85
2024/04/06 04:39:46;;;;;;;6.43;2.15;;;7.10;99.90;;;;;;6304812;22;20472;-85
2024/04/06 04:42:12;;;;;;;3.75;2.03;;;7.10;99.90;;;;;;6306034;22;20010;-87
2024/04/06 04:44:37;;;;;;;5.18;2.10;;;7.20;99.90;;;;;;6307497;22;20011;-87
2024/04/06 04:47:03;;;;;;;3.17;1.65;;;7.20;99.90;;;;;;6305752;22;20006;-87
2024/04/06 04:49:29;;;;;;;10.18;2.80;;;7.20;99.90;;;;;;6306166;22;20000;-88
2024/04/06 04:51:55;;;;;;;14.43;3.67;;;7.20;99.90;;;;;;6305586;22;20003;-86
2024/04/06 04:54:21;;;;;;;9.57;3.88;;;7.40;99.90;;;;;;6304622;22;20010;-84
2024/04/06 04:56:46;;;;;;;10.13;3.53;;;7.60;99.90;;;;;;6305130;22;19999;-85
2024/04/06 04:59:12;;;;;;;9.93;3.67;;;7.70;99.90;;;;;;6304450;22;20015;-83
2024/04/06 05:01:38;;;;;;;3.42;2.28;;;7.80;99.90;;;;;;6301565;22;20004;-81
2024/04/06 05:04:03;;;;;;;2.22;2.00;;;8.00;99.90;;;;;;6299583;22;20661;-85
2024/04/06 05:06:29;;;;;;;5.70;2.10;;;8.30;99.90;;;;;;6300344;22;19999;-85
2024/04/06 05:08:55;;;;;;;9.82;2.17;;;8.40;99.90;;;;;;6300175;22;20003;-84
2024/04/06 05:11:20;;;;;;;7.32;2.05;;;8.20;99.90;;;;;;6301327;22;20003;-85
2024/04/06 05:13:46;;;;;;;3.13;1.90;;;8.20;99.90;;;;;;6300429;22;20003;-84
2024/04/06 05:16:11;;;;;;;2.15;1.42;;;8.00;99.90;;;;;;6300180;22;19995;-84
2024/04/06 05:18:37;;;;;;;2.20;1.30;;;9.00;99.90;;;;;;6300028;22;20461;-83
2024/04/06 05:21:03;;;;;;;4.93;1.20;;;9.60;99.90;;;;;;6301050;22;20003;-84
2024/04/06 05:23:28;;;;;;;4.32;1.00;;;10.00;99.90;;;;;;6298803;22;20000;-82
2024/04/06 05:25:54;;;;;;;2.13;1.13;;;10.10;99.90;;;;;;6300558;22;20004;-86
2024/04/06 05:28:22;;;;;;;1.20;0.90;;;10.20;67.50;;;;;;6300625;22;20011;-85
2024/04/06 05:30:48;;;;;;;5.05;1.25;;;10.20;27.80;;;;;;6301733;22;20011;-87
2024/04/06 05:33:15;;;;;;;2.20;0.90;;;10.30;9.10;;;;;;6300093;22;20000;-83
2024/04/06 05:35:42;;;;;;;5.20;1.10;;;10.30;1.00;;;;;;6302701;22;20064;-83
2024/04/06 05:38:08;;;;;;;4.63;0.90;;;10.40;1.00;;;;;;6302939;22;20830;-82
2024/04/06 05:40:37;;;;;;;3.40;0.90;;;10.00;1.00;;;;;;6313298;22;20011;-82
2024/04/06 05:43:04;;;;;;;3.40;1.05;;;9.90;11.00;;;;;;6298624;22;19995;-82
2024/04/06 05:45:30;;;;;;;3.67;1.23;;;9.20;4.70;;;;;;6299296;22;20031;-81
2024/04/06 05:48:01;;;;;;;2.95;1.40;;;8.60;56.20;;;;;;6326387;22;20038;-83
2024/04/06 05:50:27;;;;;;;8.25;1.30;;;8.20;99.90;;;;;;6330148;22;19992;-83
2024/04/06 05:52:52;;;;;;;1.73;1.30;;;7.90;99.90;;;;;;6327411;22;19995;-82
2024/04/06 05:55:18;;;;;;;3.47;1.52;;;7.70;99.90;;;;;;6323877;22;19999;-80
2024/04/06 05:57:44;;;;;;;7.43;1.40;;;7.60;99.90;;;;;;6321801;22;20003;-79
2024/04/06 06:00:10;;;;;;;3.33;1.58;;;7.70;99.90;;;;;;6323575;22;20044;-80
2024/04/06 06:02:36;;;;;;;4.65;1.83;;;7.80;99.90;;;;;;6318374;22;20059;-78
2024/04/06 06:05:02;;;;;;;4.07;1.75;;;7.90;99.90;;;;;;6317841;22;20010;-77
2024/04/06 06:07:27;;;;;;;4.78;1.40;;;8.10;99.90;;;;;;6320703;22;20354;-79
2024/04/06 06:09:53;;;;;;;5.03;1.60;;;8.20;99.90;;;;;;6319529;22;20003;-81
2024/04/06 06:12:19;;;;;;;5.57;1.70;;;8.30;99.90;;;;;;6317039;22;19999;-83
2024/04/06 06:14:45;;;;;;;3.30;1.60;;;8.40;99.90;;;;;;6308828;22;20178;-84
2024/04/06 06:17:10;;;;;;;1.55;1.40;;;8.50;99.90;;;;;;6307367;22;19999;-79
2024/04/06 06:19:36;;;;;;;6.38;1.98;;;8.60;99.90;;;;;;6309655;22;20042;-81
2024/04/06 06:22:03;;;;;;;2.85;2.30;;;8.70;99.90;;;;;;6307640;22;19999;-82
2024/04/06 06:24:30;;;;;;;3.83;1.95;;;9.00;99.90;;;;;;6308119;22;20033;-83
2024/04/06 06:26:55;;;;;;;3.95;1.70;;;9.10;99.90;;;;;;6306409;22;19999;-83
2024/04/06 06:29:21;;;;;;;2.78;1.60;;;9.30;99.90;;;;;;6304783;22;20357;-83
2024/04/06 06:31:47;;;;;;;4.80;2.10;;;9.40;99.90;;;;;;6304384;22;20413;-82
2024/04/06 06:34:12;;;;;;;7.68;2.90;;;9.60;99.90;;;;;;6305472;22;20011;-82
2024/04/06 06:36:39;;;;;;;3.95;2.20;;;9.80;99.90;;;;;;6305313;22;19999;-81
2024/04/06 06:39:05;;;;;;;5.03;2.75;;;9.90;99.90;;;;;;6305306;22;20007;-83
2024/04/06 06:41:32;;;;;;;5.72;2.92;;;10.10;99.90;;;;;;6304044;22;20095;-81
2024/04/06 06:43:58;;;;;;;8.68;2.80;;;10.30;99.90;;;;;;6305425;22;20018;-82
2024/04/06 06:46:23;;;;;;;7.47;3.33;;;10.50;99.90;;;;;;6310510;22;20019;-82
2024/04/06 06:48:49;;;;;;;5.22;3.35;;;10.70;99.90;;;;;;6304720;22;20003;-82
2024/04/06 06:51:15;;;;;;;4.22;2.38;;;10.80;99.90;;;;;;6275848;22;20497;-79
2024/04/06 06:53:40;;;;;;;2.88;1.95;;;11.00;99.90;;;;;;6307327;22;19996;-80
2024/04/06 06:56:06;;;;;;;2.67;2.08;;;11.30;99.90;;;;;;6316541;22;19999;-79
2024/04/06 06:58:33;;;;;;;4.03;2.42;;;11.60;99.90;;;;;;6303690;22;20469;-79
2024/04/06 07:00:59;;;;;;;3.50;2.10;;;11.90;99.90;;;;;;6301380;22;20007;-86
2024/04/06 07:03:25;;;;;;;3.78;2.08;;;12.20;99.90;;;;;;6302691;22;20003;-84
2024/04/06 07:05:51;;;;;;;0.90;0.90;;;12.70;99.90;;;;;;6305046;22;20078;-82
2024/04/06 07:08:16;;;;;;;1.20;0.77;;;13.40;1.00;;;;;;6305133;22;20378;-85
2024/04/06 07:10:43;;;;;;;1.73;0.93;;;13.90;99.90;;;;;;6305342;22;20018;-86
2024/04/06 07:13:08;;;;;;;2.35;0.70;;;14.40;99.90;;;;;;6302377;22;20112;-84
2024/04/06 07:15:34;;;;;;;3.72;0.85;;;14.80;99.90;;;;;;6278225;22;20132;-82
2024/04/06 07:17:59;;;;;;;2.33;0.80;;;15.10;99.90;;;;;;6307196;22;20015;-89
2024/04/06 07:20:25;;;;;;;2.00;0.47;;;15.30;99.90;;;;;;6310380;22;20008;-88
2024/04/06 07:22:51;;;;;;;2.20;0.80;;;15.20;99.90;;;;;;6309488;22;20049;-84
2024/04/06 07:25:18;;;;;;;3.13;0.60;;;15.50;99.90;;;;;;6311051;22;20000;-89
2024/04/06 07:27:44;;;;;;;0.70;0.40;;;15.60;99.90;;;;;;6310334;22;19999;-88
2024/04/06 07:30:10;;;;;;;1.45;0.55;;;15.70;99.90;;;;;;6307892;22;20026;-87
2024/04/06 07:32:35;;;;;;;1.77;0.65;;;15.90;99.90;;;;;;6307330;22;20074;-88
2024/04/06 07:35:02;;;;;;;1.05;0.40;;;15.80;99.90;;;;;;6306295;22;20004;-87
2024/04/06 07:37:28;;;;;;;2.30;0.60;;;15.90;99.90;;;;;;6306355;22;19999;-87
2024/04/06 07:39:53;;;;;;;1.90;0.55;;;16.00;99.90;;;;;;6306489;22;20018;-87
2024/04/06 07:42:19;;;;;;;1.75;0.60;;;16.00;99.90;;;;;;6305227;22;20346;-82
2024/04/06 07:44:44;;;;;;;1.85;0.50;;;16.10;99.90;;;;;;6303608;22;20450;-87
2024/04/06 07:47:10;;;;;;;2.28;0.95;;;16.00;99.90;;;;;;6306319;22;20501;-87
2024/04/06 07:49:36;;;;;;;0.55;0.50;;;16.20;99.90;;;;;;6308722;22;20011;-89
2024/04/06 07:52:01;;;;;;;0.80;0.47;;;16.40;99.90;;;;;;6309230;22;19996;-87
2024/04/06 07:54:27;;;;;;;1.50;0.50;;;16.20;99.90;;;;;;6309639;22;20472;-87
2024/04/06 07:56:52;;;;;;;0.40;0.35;;;16.10;99.90;;;;;;6323590;22;19995;-86
2024/04/06 07:59:18;;;;;;;0.65;0.40;;;16.20;99.90;;;;;;6322302;22;20008;-83
2024/04/06 08:01:43;;;;;;;2.22;0.50;;;16.10;99.90;;;;;;6319997;22;19995;-85
2024/04/06 08:04:09;;;;;;;2.15;0.60;;;16.00;99.90;;;;;;6314574;22;20074;-84
2024/04/06 08:06:35;;;;;;;4.40;0.80;;;16.10;99.90;;;;;;6317738;22;20065;-84
2024/04/06 08:09:00;;;;;;;2.88;1.20;;;16.20;99.90;;;;;;6308477;22;20312;-87
2024/04/06 08:11:26;;;;;;;2.08;0.70;;;16.20;99.90;;;;;;6308378;22;20053;-84
2024/04/06 08:13:52;;;;;;;2.03;0.68;;;16.30;99.90;;;;;;6308377;22;20067;-84
2024/04/06 08:16:17;;;;;;;1.98;0.95;;;16.50;99.90;;;;;;6308069;22;20007;-84
2024/04/06 08:18:43;;;;;;;5.47;0.80;;;16.50;99.90;;;;;;6307708;22;20003;-85
2024/04/06 08:21:09;;;;;;;3.47;0.50;;;16.60;99.90;;;;;;6310015;22;20050;-85
2024/04/06 08:23:34;;;;;;;2.28;0.85;;;16.90;99.90;;;;;;6282635;22;20358;-85
2024/04/06 08:26:00;;;;;;;2.53;0.40;;;17.40;99.90;;;;;;6311346;22;19999;-86
2024/04/06 08:28:25;;;;;;;2.63;0.50;;;17.60;99.90;;;;;;6309448;22;20064;-87
2024/04/06 08:30:51;;;;;;;2.92;0.50;;;17.60;99.90;;;;;;6308655;22;20007;-84
2024/04/06 08:33:16;;;;;;;1.42;0.57;;;17.40;99.90;;;;;;6308406;22;20068;-87
2024/04/06 08:35:42;;;;;;;2.20;0.60;;;17.30;99.90;;;;;;6309745;22;20003;-87
2024/04/06 08:38:08;;;;;;;1.02;0.52;;;17.40;99.90;;;;;;6307305;22;20485;-86
2024/04/06 08:40:42;;;;;;;0.57;0.40;;;17.20;99.90;;;;;;6280456;22;20042;-85
2024/04/06 08:43:12;;;;;;;1.60;0.40;;;17.30;99.90;;;;;;6306804;22;19999;-86
2024/04/06 08:45:39;;;;;;;1.00;0.43;;;17.40;99.90;;;;;;6306838;22;20787;-85
2024/04/06 08:48:10;;;;;;;2.33;0.55;;;17.50;99.90;;;;;;6304966;22;20002;-87
2024/04/06 08:50:37;;;;;;;1.65;0.55;;;17.40;99.90;;;;;;6306947;22;20462;-87
2024/04/06 08:53:05;;;;;;;1.75;0.60;;;17.30;99.90;;;;;;6306000;22;19998;-86
2024/04/06 08:55:31;;;;;;;3.85;0.70;;;17.30;99.90;;;;;;6306597;22;19999;-87
2024/04/06 08:57:57;;;;;;;0.47;0.47;;;17.30;99.90;;;;;;6306718;22;20011;-86
2024/04/06 09:00:26;;;;;;;1.83;0.52;;;17.60;99.90;;;;;;6306989;22;20018;-86
2024/04/06 09:02:52;;;;;;;7.43;0.70;;;17.80;99.90;;;;;;6305815;22;20003;-86
2024/04/06 09:05:18;;;;;;;5.53;0.57;;;17.90;99.90;;;;;;6307733;22;20464;-85
2024/04/06 09:07:51;;;;;;;2.05;0.50;;;18.20;99.90;;;;;;6307357;22;20006;-86
2024/04/06 09:10:17;;;;;;;2.05;0.40;;;18.60;99.90;;;;;;6308319;22;20006;-85
2024/04/06 09:12:42;;;;;;;0.63;0.47;;;19.10;99.90;;;;;;6313437;22;20519;-85
2024/04/06 09:15:14;;;;;;;0.47;0.38;;;19.00;99.90;;;;;;6316790;22;20079;-86
2024/04/06 09:17:42;;;;;;;2.45;0.50;;;18.90;99.90;;;;;;6305784;22;20003;-86
2024/04/06 09:20:08;;;;;;;0.70;0.38;;;19.00;99.90;;;;;;6307519;22;20015;-86
2024/04/06 09:22:33;;;;;;;0.57;0.28;;;19.30;1.00;;;;;;6307109;22;20051;-87
2024/04/06 09:25:04;;;;;;;3.13;0.50;;;19.20;99.90;;;;;;6278651;22;20003;-85
2024/04/06 09:27:31;;;;;;;0.43;0.30;;;19.10;99.90;;;;;;6307125;22;20385;-86
2024/04/06 09:29:57;;;;;;;1.77;0.50;;;19.00;1.00;;;;;;6307398;22;20078;-88
2024/04/06 09:32:27;;;;;;;3.42;0.63;;;19.00;1.00;;;;;;6306037;22;19996;-85
2024/04/06 09:34:53;;;;;;;5.20;0.43;;;19.20;99.90;;;;;;6310088;22;20066;-85
2024/04/06 09:37:26;;;;;;;0.77;0.20;;;19.40;1.00;;;;;;6288601;22;20003;-86
2024/04/06 09:39:53;;;;;;;3.45;0.60;;;19.40;1.00;;;;;;6306629;22;20042;-84
2024/04/06 09:42:20;;;;;;;1.63;0.57;;;19.40;99.90;;;;;;6302266;22;20015;-82
2024/04/06 09:44:49;;;;;;;0.80;0.40;;;19.30;3.30;;;;;;6301406;22;20007;-84
2024/04/06 09:47:16;;;;;;;1.02;0.38;;;19.80;65.40;;;;;;6300994;22;20413;-85
2024/04/06 09:49:42;;;;;;;1.40;0.35;;;20.00;11.10;;;;;;6304040;22;20034;-83
2024/04/06 09:52:09;;;;;;;5.90;0.80;;;19.90;1.00;;;;;;6274443;22;20616;-83
2024/04/06 09:54:34;;;;;;;5.50;0.47;;;19.70;1.00;;;;;;6302448;22;20026;-84
2024/04/06 09:57:00;;;;;;;2.88;0.50;;;20.20;9.10;;;;;;6302006;22;20057;-84
2024/04/06 09:59:29;;;;;;;2.75;0.40;;;20.30;1.00;;;;;;6302333;22;20015;-83
2024/04/06 10:01:56;;;;;;;2.25;0.50;;;20.50;50.60;;;;;;6272260;22;20007;-84
2024/04/06 10:04:27;;;;;;;8.23;0.65;;;21.30;18.10;;;;;;6301530;22;20037;-83
2024/04/06 10:06:56;;;;;;;2.42;0.45;;;21.40;1.00;;;;;;6300129;22;20657;-81
2024/04/06 10:09:28;;;;;;;0.88;0.40;;;21.40;1.00;;;;;;6299820;22;20671;-81
2024/04/06 10:11:58;;;;;;;1.63;0.40;;;21.50;1.00;;;;;;6300319;22;20529;-82
2024/04/06 10:14:25;;;;;;;2.17;0.43;;;22.00;99.90;;;;;;6304510;22;20003;-82
2024/04/06 10:16:50;;;;;;;2.97;0.57;;;22.10;99.90;;;;;;6302949;22;20020;-81
2024/04/06 10:19:17;;;;;;;2.75;0.30;;;22.30;99.90;;;;;;6304696;22;20147;-79
2024/04/06 10:21:46;;;;;;;1.15;0.43;;;22.00;99.90;;;;;;6304652;22;20011;-81
2024/04/06 10:24:17;;;;;;;0.50;0.30;;;22.40;99.90;;;;;;6304816;22;20079;-79
2024/04/06 10:26:49;;;;;;;3.50;0.47;;;22.50;99.90;;;;;;6304280;22;20007;-81
2024/04/06 10:29:14;;;;;;;4.00;0.57;;;22.60;99.90;;;;;;6303059;22;19999;-84
2024/04/06 10:31:44;;;;;;;2.10;0.50;;;22.90;99.90;;;;;;6303699;22;20019;-84
2024/04/06 10:34:10;;;;;;;0.85;0.20;;;22.90;99.90;;;;;;6304838;22;20130;-84
2024/04/06 10:36:36;;;;;;;4.68;0.38;;;22.80;99.90;;;;;;6305497;22;19999;-84
2024/04/06 10:39:07;;;;;;;4.82;0.47;;;23.00;99.90;;;;;;6303906;22;19999;-83
2024/04/06 10:41:34;;;;;;;4.00;0.50;;;23.90;99.90;;;;;;6303805;22;20013;-79
2024/04/06 10:44:01;;;;;;;2.80;0.30;;;24.30;99.90;;;;;;6303972;22;20346;-81
2024/04/06 10:46:27;;;;;;;0.60;0.32;;;24.20;99.90;;;;;;6274146;22;20023;-82
2024/04/06 10:48:54;;;;;;;0.93;0.38;;;23.20;99.90;;;;;;6301568;22;20053;-82
2024/04/06 10:51:21;;;;;;;2.10;0.30;;;23.30;99.90;;;;;;6303682;22;20087;-80
2024/04/06 10:53:47;;;;;;;3.10;0.30;;;23.80;99.90;;;;;;6303154;22;20011;-80
2024/04/06 10:56:13;;;;;;;3.70;0.30;;;24.00;99.90;;;;;;6303022;22;20003;-82
2024/04/06 10:58:39;;;;;;;0.98;0.38;;;24.30;99.90;;;;;;6303261;22;20016;-79
2024/04/06 11:01:10;;;;;;;1.17;0.52;;;23.50;99.90;;;;;;6302878;22;20040;-79
2024/04/06 11:03:37;;;;;;;0.95;0.40;;;24.10;99.90;;;;;;6302837;22;20023;-82
2024/04/06 11:06:03;;;;;;;1.95;0.35;;;24.60;99.90;;;;;;6303435;22;20328;-82
2024/04/06 11:08:29;;;;;;;1.67;0.40;;;24.70;98.70;;;;;;6303812;22;20006;-81
2024/04/06 11:10:55;;;;;;;0.38;0.30;;;23.70;99.90;;;;;;6303395;22;20342;-80
2024/04/06 11:13:22;;;;;;;1.88;0.50;;;24.80;99.90;;;;;;6276138;22;20004;-81
2024/04/06 11:15:49;;;;;;;0.73;0.40;;;24.90;99.90;;;;;;6303992;22;20010;-79
2024/04/06 11:18:15;;;;;;;2.08;0.50;;;25.40;61.10;;;;;;6301508;22;20435;-78
2024/04/06 11:20:41;;;;;;;1.65;0.30;;;25.00;99.90;;;;;;6303916;22;20018;-78
2024/04/06 11:23:19;;;;;;;2.55;0.50;;;24.60;99.90;;;;;;6302437;22;20003;-79
2024/04/06 11:25:45;;;;;;;0.55;0.32;;;24.80;99.90;;;;;;6302937;22;20074;-79
2024/04/06 11:28:11;;;;;;;1.60;0.38;;;24.80;99.90;;;;;;6303022;22;20349;-80
2024/04/06 11:30:37;;;;;;;2.33;0.30;;;24.90;99.90;;;;;;6304640;22;20015;-79
2024/04/06 11:33:03;;;;;;;0.68;0.30;;;24.90;99.90;;;;;;6303932;22;20002;-78
2024/04/06 11:35:32;;;;;;;0.68;0.22;;;24.80;59.50;;;;;;6304833;22;20010;-80
2024/04/06 11:37:58;;;;;;;4.32;0.50;;;25.30;55.10;;;;;;6303880;22;20397;-80
2024/04/06 11:40:24;;;;;;;0.85;0.20;;;25.60;37.00;;;;;;6304491;22;20038;-80
2024/04/06 11:42:50;;;;;;;1.75;0.40;;;25.90;54.40;;;;;;6304436;22;19995;-78
2024/04/06 11:45:15;;;;;;;2.70;0.30;;;24.90;39.50;;;;;;6304873;22;20076;-80
2024/04/06 11:47:42;;;;;;;0.80;0.20;;;24.80;99.90;;;;;;6302945;22;20011;-80
2024/04/06 11:50:08;;;;;;;1.50;0.20;;;25.10;89.30;;;;;;6304715;22;20393;-80
2024/04/06 11:52:33;;;;;;;1.27;0.38;;;25.20;99.90;;;;;;6305337;22;19995;-80
2024/04/06 11:54:59;;;;;;;1.75;0.25;;;25.20;93.40;;;;;;6306482;22;20014;-80
2024/04/06 11:57:25;;;;;;;0.47;0.30;;;24.80;99.90;;;;;;6305621;22;20004;-81
2024/04/06 11:59:50;;;;;;;2.17;0.50;;;24.90;99.90;;;;;;6306002;22;20014;-79
2024/04/06 12:02:16;;;;;;;2.35;0.30;;;25.00;99.90;;;;;;6303845;22;20367;-81
2024/04/06 12:04:42;;;;;;;0.68;0.40;;;25.30;99.90;;;;;;6304383;22;20010;-82
2024/04/06 12:07:08;;;;;;;1.00;0.30;;;25.50;99.90;;;;;;6305175;22;20348;-85
2024/04/06 12:09:34;;;;;;;0.50;0.20;;;25.00;61.50;;;;;;6304051;22;20014;-80
2024/04/06 12:11:59;;;;;;;2.70;0.30;;;25.10;95.60;;;;;;6274844;22;20007;-77
2024/04/06 12:14:25;;;;;;;1.85;0.50;;;24.90;60.90;;;;;;6303394;22;20026;-80
2024/04/06 12:16:51;;;;;;;6.47;0.32;;;24.80;68.60;;;;;;6300347;22;20057;-81
2024/04/06 12:19:17;;;;;;;3.08;0.22;;;24.90;52.80;;;;;;6301681;22;20042;-81
2024/04/06 12:21:42;;;;;;;1.80;0.52;;;24.70;55.30;;;;;;6302757;22;20050;-84
2024/04/06 12:24:08;;;;;;;3.30;0.50;;;24.90;70.40;;;;;;6304355;22;20565;-82
2024/04/06 12:26:34;;;;;;;26.27;1.33;;;24.60;94.50;;;;;;6304272;22;20003;-79
2024/04/06 12:29:00;;;;;;;3.00;0.40;;;25.50;93.20;;;;;;6304305;22;20003;-84
2024/04/06 12:31:26;;;;;;;0.45;0.20;;;25.50;14.90;;;;;;6304433;22;20004;-84
2024/04/06 12:33:52;;;;;;;1.38;0.40;;;25.30;44.80;;;;;;6305661;22;19999;-86
2024/04/06 12:36:18;;;;;;;0.45;0.20;;;24.70;92.70;;;;;;6305562;22;20057;-86
2024/04/06 12:38:44;;;;;;;1.05;0.38;;;25.20;58.50;;;;;;6305008;22;20011;-82
2024/04/06 12:41:09;;;;;;;0.25;0.20;;;25.40;50.50;;;;;;6304951;22;20042;-84
2024/04/06 12:43:36;;;;;;;1.02;0.55;;;25.20;57.40;;;;;;6304338;22;20025;-84
2024/04/06 12:46:02;;;;;;;1.55;0.30;;;25.30;60.10;;;;;;6304546;22;20019;-82